createdAt,value
2022-10-08T00:00:54.308Z,63.50
2022-10-08T00:03:23.152Z,63.70
2022-10-08T00:05:56.600Z,63.80
2022-10-08T00:08:23.803Z,63.80
2022-10-08T00:10:55.284Z,63.90
2022-10-08T00:13:22.538Z,64.20
2022-10-08T00:15:49.823Z,64.10
2022-10-08T00:18:16.759Z,64.10
2022-10-08T00:20:43.975Z,64.40
2022-10-08T00:23:10.926Z,64.40
2022-10-08T00:25:42.491Z,64.40
2022-10-08T00:28:10.244Z,64.40
2022-10-08T00:30:37.550Z,64.40
2022-10-08T00:33:04.541Z,64.50
2022-10-08T00:35:35.847Z,64.40
2022-10-08T00:38:03.097Z,64.50
2022-10-08T00:40:29.941Z,64.60
2022-10-08T00:42:56.847Z,64.60
2022-10-08T00:45:23.870Z,64.60
2022-10-08T00:47:54.110Z,64.60
2022-10-08T00:50:34.305Z,64.70
2022-10-08T00:53:03.790Z,64.60
2022-10-08T00:55:31.524Z,64.40
2022-10-08T00:58:02.329Z,64.40
2022-10-08T01:00:29.807Z,64.40
2022-10-08T01:02:56.798Z,64.40
2022-10-08T01:05:39.413Z,64.70
2022-10-08T01:08:20.817Z,64.90
2022-10-08T01:10:50.717Z,65.20
2022-10-08T01:13:32.899Z,65.50
2022-10-08T01:16:18.712Z,65.70
2022-10-08T01:18:48.690Z,65.80
2022-10-08T01:21:19.933Z,65.70
2022-10-08T01:24:05.068Z,65.30
2022-10-08T01:26:37.940Z,65.00
2022-10-08T01:29:28.313Z,65.00
2022-10-08T01:32:04.167Z,65.00
2022-10-08T01:34:34.567Z,65.10
2022-10-08T01:37:03.263Z,65.00
2022-10-08T01:39:32.408Z,65.00
2022-10-08T01:42:00.647Z,65.20
2022-10-08T01:44:33.695Z,65.40
2022-10-08T01:47:03.981Z,65.40
2022-10-08T01:49:33.552Z,65.40
2022-10-08T01:52:04.328Z,65.50
2022-10-08T01:54:32.573Z,65.60
2022-10-08T01:57:01.201Z,65.70
2022-10-08T01:59:32.513Z,65.70
2022-10-08T02:01:59.396Z,65.80
2022-10-08T02:04:33.791Z,65.90
2022-10-08T02:07:02.181Z,65.70
2022-10-08T02:09:30.532Z,65.60
2022-10-08T02:11:57.688Z,65.60
2022-10-08T02:14:26.588Z,65.70
2022-10-08T02:16:58.515Z,65.80
2022-10-08T02:19:45.619Z,65.70
2022-10-08T02:22:16.006Z,65.60
2022-10-08T02:24:44.428Z,65.60
2022-10-08T02:27:12.904Z,65.60
2022-10-08T02:29:42.444Z,65.70
2022-10-08T02:32:12.724Z,65.70
2022-10-08T02:34:58.639Z,65.60
2022-10-08T02:37:31.824Z,65.50
2022-10-08T02:40:01.115Z,65.30
2022-10-08T02:42:29.013Z,65.20
2022-10-08T02:45:01.934Z,65.20
2022-10-08T02:47:30.789Z,65.20
2022-10-08T02:50:00.166Z,65.20
2022-10-08T02:52:28.219Z,65.20
2022-10-08T02:54:55.973Z,65.20
2022-10-08T02:57:31.914Z,65.40
2022-10-08T02:59:59.347Z,65.40
2022-10-08T03:02:29.909Z,65.30
2022-10-08T03:04:59.374Z,65.40
2022-10-08T03:07:28.767Z,65.60
2022-10-08T03:09:56.761Z,65.90
2022-10-08T03:12:25.138Z,66.00
2022-10-08T03:14:52.736Z,66.10
2022-10-08T03:17:23.770Z,66.10
2022-10-08T03:19:50.956Z,66.10
2022-10-08T03:22:17.883Z,66.20
2022-10-08T03:24:44.695Z,66.40
2022-10-08T03:27:11.553Z,66.50
2022-10-08T03:29:38.395Z,66.60
2022-10-08T03:32:06.654Z,66.90
2022-10-08T03:34:33.541Z,67.00
2022-10-08T03:37:00.392Z,67.00
2022-10-08T03:39:27.264Z,67.10
2022-10-08T03:41:54.186Z,67.10
2022-10-08T03:44:21.068Z,67.00
2022-10-08T03:46:48.053Z,66.90
2022-10-08T03:49:14.954Z,67.00
2022-10-08T03:51:41.824Z,67.10
2022-10-08T03:54:08.796Z,67.10
2022-10-08T03:56:35.659Z,67.20
2022-10-08T03:59:03.831Z,67.30
2022-10-08T04:01:30.834Z,67.40
2022-10-08T04:03:57.781Z,67.50
2022-10-08T04:06:24.795Z,67.50
2022-10-08T04:08:51.784Z,67.40
2022-10-08T04:11:18.771Z,67.30
2022-10-08T04:13:45.887Z,67.20
2022-10-08T04:16:16.866Z,67.40
2022-10-08T04:18:43.760Z,67.40
2022-10-08T04:21:11.876Z,67.50
2022-10-08T04:23:39.847Z,67.60
2022-10-08T04:26:06.876Z,67.60
2022-10-08T04:28:38.599Z,67.60
2022-10-08T04:31:06.009Z,67.60
2022-10-08T04:33:33.771Z,67.70
2022-10-08T04:36:00.862Z,67.70
2022-10-08T04:38:28.249Z,67.60
2022-10-08T04:41:05.467Z,67.50
2022-10-08T04:43:32.860Z,67.60
2022-10-08T04:45:59.761Z,67.50
2022-10-08T04:48:26.602Z,67.50
2022-10-08T04:51:00.865Z,67.60
2022-10-08T04:53:28.385Z,67.50
2022-10-08T04:55:55.805Z,67.30
2022-10-08T04:58:23.313Z,67.30
2022-10-08T05:00:50.161Z,67.40
2022-10-08T05:03:17.626Z,67.40
2022-10-08T05:05:45.460Z,67.20
2022-10-08T05:08:12.353Z,67.30
2022-10-08T05:10:39.258Z,67.40
2022-10-08T05:13:06.191Z,67.40
2022-10-08T05:15:34.860Z,67.50
2022-10-08T05:18:01.907Z,67.50
2022-10-08T05:20:28.831Z,67.50
2022-10-08T05:22:55.622Z,67.40
2022-10-08T05:25:22.919Z,67.40
2022-10-08T05:27:50.001Z,67.30
2022-10-08T05:30:21.725Z,67.30
2022-10-08T05:32:49.232Z,67.40
2022-10-08T05:35:16.540Z,67.60
2022-10-08T05:37:43.438Z,67.60
2022-10-08T05:40:10.694Z,67.60
2022-10-08T05:42:37.839Z,67.60
2022-10-08T05:45:04.969Z,67.60
2022-10-08T05:47:31.796Z,67.60
2022-10-08T05:49:58.703Z,67.50
2022-10-08T05:52:27.178Z,67.40
2022-10-08T05:54:54.307Z,67.50
2022-10-08T05:57:21.250Z,67.60
2022-10-08T05:59:48.215Z,67.70
2022-10-08T06:02:15.106Z,67.50
2022-10-08T06:04:42.359Z,67.50
2022-10-08T06:07:09.264Z,67.40
2022-10-08T06:09:36.145Z,67.50
2022-10-08T06:12:03.131Z,67.50
2022-10-08T06:14:30.164Z,67.40
2022-10-08T06:16:57.433Z,67.50
2022-10-08T06:19:24.273Z,67.60
2022-10-08T06:21:51.360Z,67.60
2022-10-08T06:24:18.420Z,67.60
2022-10-08T06:26:45.500Z,67.60
2022-10-08T06:29:16.446Z,67.70
2022-10-08T06:31:43.703Z,67.70
2022-10-08T06:34:10.584Z,67.70
2022-10-08T06:36:38.059Z,67.50
2022-10-08T06:39:10.875Z,67.30
2022-10-08T06:41:38.015Z,67.30
2022-10-08T06:44:05.766Z,67.30
2022-10-08T06:46:33.200Z,67.60
2022-10-08T06:49:01.304Z,67.70
2022-10-08T06:51:28.716Z,67.80
2022-10-08T06:53:59.417Z,67.80
2022-10-08T06:56:29.089Z,67.60
2022-10-08T06:58:55.984Z,67.50
2022-10-08T07:01:27.882Z,67.60
2022-10-08T07:03:59.425Z,67.60
2022-10-08T07:06:26.945Z,67.80
2022-10-08T07:08:58.458Z,68.10
2022-10-08T07:11:25.941Z,68.40
2022-10-08T07:13:54.433Z,68.60
2022-10-08T07:16:23.277Z,68.70
2022-10-08T07:18:51.163Z,68.70
2022-10-08T07:21:19.097Z,68.70
2022-10-08T07:23:46.209Z,68.50
2022-10-08T07:26:14.306Z,68.30
2022-10-08T07:28:48.235Z,67.80
2022-10-08T07:31:16.311Z,67.60
2022-10-08T07:33:43.272Z,67.50
2022-10-08T07:36:12.066Z,67.70
2022-10-08T07:38:39.388Z,67.80
2022-10-08T07:41:06.608Z,68.00
2022-10-08T07:43:33.502Z,68.00
2022-10-08T07:46:00.443Z,68.20
2022-10-08T07:48:33.813Z,68.40
2022-10-08T07:51:08.100Z,68.60
2022-10-08T07:53:35.524Z,68.80
2022-10-08T07:56:02.807Z,68.80
2022-10-08T07:58:29.701Z,68.70
2022-10-08T08:00:57.760Z,69.10
2022-10-08T08:03:24.948Z,68.70
2022-10-08T08:05:54.089Z,68.90
2022-10-08T08:08:24.887Z,69.00
2022-10-08T08:10:58.427Z,69.20
2022-10-08T08:13:25.423Z,69.80
2022-10-08T08:15:59.534Z,70.00
2022-10-08T08:18:30.752Z,69.80
2022-10-08T08:21:01.789Z,69.50
2022-10-08T08:23:29.954Z,69.20
2022-10-08T08:25:59.890Z,69.30
2022-10-08T08:28:26.851Z,68.90
2022-10-08T08:30:56.010Z,68.10
2022-10-08T08:33:23.066Z,67.60
2022-10-08T08:35:50.800Z,67.20
2022-10-08T08:38:17.684Z,67.10
2022-10-08T08:40:44.788Z,67.00
2022-10-08T08:43:11.675Z,66.70
2022-10-08T08:45:47.431Z,67.50
2022-10-08T08:48:26.633Z,66.80
2022-10-08T08:50:59.381Z,66.90
2022-10-08T08:53:45.250Z,67.10
2022-10-08T08:56:32.342Z,67.30
2022-10-08T08:59:11.505Z,67.40
2022-10-08T09:02:03.107Z,67.60
2022-10-08T09:04:46.403Z,67.60
2022-10-08T09:07:34.563Z,67.70
2022-10-08T09:10:09.778Z,67.80
2022-10-08T09:12:47.391Z,67.90
2022-10-08T09:15:28.906Z,67.90
2022-10-08T09:17:56.083Z,68.40
2022-10-08T09:20:25.799Z,68.90
2022-10-08T09:22:54.149Z,69.40
2022-10-08T09:25:39.814Z,69.50
2022-10-08T09:28:33.636Z,69.60
2022-10-08T09:31:43.319Z,70.50
2022-10-08T09:34:13.600Z,69.50
2022-10-08T09:36:48.796Z,68.20
2022-10-08T09:39:20.304Z,67.60
2022-10-08T09:42:10.087Z,67.80
2022-10-08T09:44:48.787Z,68.00
2022-10-08T09:47:26.446Z,68.20
2022-10-08T09:50:27.405Z,67.80
2022-10-08T09:52:55.299Z,67.00
2022-10-08T09:55:31.534Z,66.70
2022-10-08T09:58:03.105Z,66.60
2022-10-08T10:00:31.671Z,66.70
2022-10-08T10:02:59.768Z,66.70
2022-10-08T10:05:28.338Z,67.00
2022-10-08T10:07:55.662Z,67.50
2022-10-08T10:10:29.438Z,67.70
2022-10-08T10:12:58.365Z,67.20
2022-10-08T10:15:38.420Z,66.60
2022-10-08T10:18:11.416Z,66.40
2022-10-08T10:20:41.739Z,66.50
2022-10-08T10:23:13.396Z,67.10
2022-10-08T10:25:40.226Z,67.70
2022-10-08T10:28:10.498Z,67.80
2022-10-08T10:30:55.742Z,67.90
2022-10-08T10:33:28.461Z,67.40
2022-10-08T10:36:01.105Z,66.90
2022-10-08T10:38:39.588Z,66.30
2022-10-08T10:41:32.159Z,65.60
2022-10-08T10:44:13.092Z,65.00
2022-10-08T10:46:49.648Z,65.00
2022-10-08T10:49:17.929Z,66.10
2022-10-08T10:52:03.773Z,66.40
2022-10-08T10:54:57.171Z,65.90
2022-10-08T10:57:24.173Z,65.30
2022-10-08T11:00:02.035Z,64.80
2022-10-08T11:02:32.125Z,65.00
2022-10-08T11:05:02.377Z,65.00
2022-10-08T11:07:38.562Z,65.60
2022-10-08T11:10:05.451Z,66.10
2022-10-08T11:12:44.455Z,66.60
2022-10-08T11:15:17.403Z,65.80
2022-10-08T11:17:47.337Z,65.80
2022-10-08T11:20:29.810Z,65.60
2022-10-08T11:22:59.808Z,65.80
2022-10-08T11:25:49.790Z,65.30
2022-10-08T11:28:23.322Z,65.40
2022-10-08T11:31:05.933Z,65.20
2022-10-08T11:33:33.320Z,64.90
2022-10-08T11:36:15.604Z,64.40
2022-10-08T11:38:45.765Z,64.20
2022-10-08T11:41:18.879Z,64.60
2022-10-08T11:43:51.955Z,64.70
2022-10-08T11:46:22.715Z,64.40
2022-10-08T11:48:50.439Z,63.80
2022-10-08T11:51:20.460Z,64.20
2022-10-08T11:54:06.198Z,63.00
2022-10-08T11:56:34.524Z,62.60
2022-10-08T11:59:22.193Z,61.90
2022-10-08T12:01:50.728Z,62.30
2022-10-08T12:04:20.191Z,62.00
2022-10-08T12:06:48.065Z,62.30
2022-10-08T12:09:25.473Z,62.60
2022-10-08T12:11:53.710Z,63.10
2022-10-08T12:14:20.596Z,63.10
2022-10-08T12:16:47.499Z,62.60
2022-10-08T12:19:35.179Z,62.00
2022-10-08T12:22:14.688Z,62.40
2022-10-08T12:24:48.890Z,62.20
2022-10-08T12:27:17.075Z,62.30
2022-10-08T12:29:53.946Z,62.40
2022-10-08T12:32:30.894Z,62.40
2022-10-08T12:34:58.285Z,62.40
2022-10-08T12:37:45.095Z,62.10
2022-10-08T12:40:20.158Z,62.10
2022-10-08T12:42:49.548Z,61.90
2022-10-08T12:45:27.725Z,62.30
2022-10-08T12:48:13.866Z,61.90
2022-10-08T12:51:10.504Z,61.50
2022-10-08T12:53:53.790Z,61.10
2022-10-08T12:59:53.573Z,60.80
2022-10-08T13:02:42.529Z,59.80
2022-10-08T13:05:29.536Z,59.70
2022-10-08T13:08:04.590Z,59.60
2022-10-08T13:10:33.643Z,59.70
2022-10-08T13:13:29.401Z,59.60
2022-10-08T13:16:12.028Z,59.60
2022-10-08T13:22:07.547Z,59.00
2022-10-08T13:24:41.383Z,59.10
2022-10-08T13:27:31.047Z,59.20
2022-10-08T13:30:52.383Z,59.40
2022-10-08T13:36:37.955Z,59.40
2022-10-08T13:39:30.912Z,59.80
2022-10-08T13:42:10.020Z,59.80
2022-10-08T13:47:41.887Z,59.00
2022-10-08T13:50:33.183Z,58.80
2022-10-08T13:56:40.419Z,58.60
2022-10-08T13:59:14.415Z,58.70
2022-10-08T14:01:48.455Z,58.70
2022-10-08T14:04:20.540Z,58.40
2022-10-08T14:06:50.651Z,58.00
2022-10-08T14:09:34.728Z,58.00
2022-10-08T14:12:08.514Z,58.10
2022-10-08T14:14:40.873Z,58.20
2022-10-08T14:17:14.820Z,58.40
2022-10-08T14:19:44.731Z,58.80
2022-10-08T14:22:16.876Z,58.70
2022-10-08T14:24:54.969Z,58.50
2022-10-08T14:27:24.128Z,58.40
2022-10-08T14:29:57.598Z,58.30
2022-10-08T14:32:31.229Z,57.90
2022-10-08T14:34:59.204Z,58.30
2022-10-08T14:37:27.495Z,57.70
2022-10-08T14:39:58.780Z,57.50
2022-10-08T14:42:30.135Z,57.40
2022-10-08T14:45:02.586Z,57.00
2022-10-08T14:47:34.836Z,56.70
2022-10-08T14:50:03.577Z,56.50
2022-10-08T14:52:32.005Z,56.30
2022-10-08T14:55:00.285Z,56.40
2022-10-08T14:57:36.173Z,56.40
2022-10-08T15:00:09.082Z,56.60
2022-10-08T15:02:37.363Z,56.60
2022-10-08T15:05:21.053Z,56.70
2022-10-08T15:07:53.344Z,56.70
2022-10-08T15:10:22.549Z,56.70
2022-10-08T15:12:55.094Z,56.90
2022-10-08T15:15:29.571Z,57.50
2022-10-08T15:17:57.933Z,58.00
2022-10-08T15:20:26.647Z,58.60
2022-10-08T15:22:55.656Z,59.60
2022-10-08T15:25:23.624Z,61.60
2022-10-08T15:27:52.105Z,63.10
2022-10-08T15:30:25.297Z,63.20
2022-10-08T15:32:54.607Z,63.40
2022-10-08T15:35:21.611Z,62.10
2022-10-08T15:37:48.440Z,60.30
2022-10-08T15:40:15.453Z,59.10
2022-10-08T15:42:42.291Z,58.40
2022-10-08T15:45:09.259Z,58.30
2022-10-08T15:47:36.127Z,58.10
2022-10-08T15:50:03.233Z,56.70
2022-10-08T15:52:30.182Z,55.50
2022-10-08T15:54:57.068Z,54.60
2022-10-08T15:57:23.927Z,54.60
2022-10-08T15:59:50.750Z,54.80
2022-10-08T16:02:18.674Z,54.60
2022-10-08T16:04:46.240Z,54.20
2022-10-08T16:07:13.252Z,53.90
2022-10-08T16:09:40.302Z,53.90
2022-10-08T16:12:07.190Z,53.90
2022-10-08T16:14:34.190Z,54.00
2022-10-08T16:17:01.147Z,54.00
2022-10-08T16:19:28.266Z,53.80
2022-10-08T16:21:56.502Z,53.60
2022-10-08T16:24:23.494Z,53.50
2022-10-08T16:26:50.663Z,53.20
2022-10-08T16:29:17.929Z,53.00
2022-10-08T16:31:45.252Z,52.90
2022-10-08T16:34:19.350Z,53.00
2022-10-08T16:36:48.096Z,53.10
2022-10-08T16:39:17.874Z,53.20
2022-10-08T16:41:45.195Z,53.30
2022-10-08T16:44:13.391Z,53.30
2022-10-08T16:46:41.641Z,53.30
2022-10-08T16:49:13.669Z,53.40
2022-10-08T16:51:40.520Z,53.40
2022-10-08T16:54:08.120Z,53.50
2022-10-08T16:56:35.904Z,53.50
2022-10-08T16:59:05.007Z,53.50
2022-10-08T17:01:31.956Z,53.50
2022-10-08T17:03:58.792Z,53.50
2022-10-08T17:06:26.602Z,53.50
2022-10-08T17:08:54.178Z,53.70
2022-10-08T17:11:21.371Z,53.80
2022-10-08T17:13:49.944Z,53.70
2022-10-08T17:16:18.286Z,53.60
2022-10-08T17:18:45.134Z,53.50
2022-10-08T17:21:12.562Z,53.50
2022-10-08T17:23:39.412Z,53.40
2022-10-08T17:26:08.092Z,53.50
2022-10-08T17:28:36.527Z,53.50
2022-10-08T17:31:04.309Z,53.60
2022-10-08T17:33:35.459Z,53.60
2022-10-08T17:36:07.750Z,53.60
2022-10-08T17:38:35.232Z,53.60
2022-10-08T17:41:09.435Z,53.70
2022-10-08T17:43:36.282Z,53.70
2022-10-08T17:46:07.231Z,53.60
2022-10-08T17:48:34.231Z,53.60
2022-10-08T17:51:02.782Z,53.70
2022-10-08T17:53:29.831Z,53.90
2022-10-08T17:55:57.605Z,53.90
2022-10-08T17:58:24.520Z,53.80
2022-10-08T18:00:51.351Z,53.80
2022-10-08T18:03:18.193Z,53.70
2022-10-08T18:05:55.175Z,53.70
2022-10-08T18:08:22.007Z,53.70
2022-10-08T18:10:48.857Z,53.80
2022-10-08T18:13:15.815Z,53.80
2022-10-08T18:15:42.854Z,53.80
2022-10-08T18:18:09.762Z,53.80
2022-10-08T18:20:36.594Z,53.90
2022-10-08T18:23:03.792Z,54.00
2022-10-08T18:25:30.591Z,54.00
2022-10-08T18:27:57.431Z,54.00
2022-10-08T18:30:24.244Z,54.10
2022-10-08T18:32:51.187Z,54.10
2022-10-08T18:35:18.051Z,54.10
2022-10-08T18:37:46.820Z,54.10
2022-10-08T18:40:13.649Z,54.10
2022-10-08T18:42:40.501Z,54.20
2022-10-08T18:45:07.623Z,54.20
2022-10-08T18:47:34.574Z,54.20
2022-10-08T18:50:20.787Z,54.30
2022-10-08T18:52:52.019Z,54.30
2022-10-08T18:55:35.568Z,54.40
2022-10-08T18:58:27.518Z,54.40
2022-10-08T19:04:18.641Z,54.40
2022-10-08T19:07:00.614Z,54.50
2022-10-08T19:09:43.239Z,54.60
2022-10-08T19:14:58.911Z,54.60
2022-10-08T19:17:25.840Z,55.20
2022-10-08T19:19:52.853Z,54.70
2022-10-08T19:22:19.835Z,54.70
2022-10-08T19:24:46.685Z,54.80
2022-10-08T19:27:13.612Z,54.80
2022-10-08T19:29:40.604Z,54.80
2022-10-08T19:32:07.526Z,54.80
2022-10-08T19:34:34.414Z,54.90
2022-10-08T19:37:01.311Z,55.00
2022-10-08T19:39:30.313Z,55.00
2022-10-08T19:41:57.431Z,55.00
2022-10-08T19:44:24.550Z,55.10
2022-10-08T19:46:51.527Z,55.10
2022-10-08T19:49:18.680Z,55.10
2022-10-08T19:51:45.739Z,55.30
2022-10-08T19:54:13.086Z,55.40
2022-10-08T19:56:40.058Z,55.40
2022-10-08T19:59:06.947Z,55.50
2022-10-08T20:01:35.195Z,55.50
2022-10-08T20:04:03.195Z,55.50
2022-10-08T20:06:34.272Z,55.50
2022-10-08T20:09:02.104Z,55.60
2022-10-08T20:11:29.839Z,55.60
2022-10-08T20:13:57.102Z,56.20
2022-10-08T20:16:26.325Z,55.60
2022-10-08T20:18:55.276Z,55.60
2022-10-08T20:21:22.501Z,55.60
2022-10-08T20:23:50.279Z,55.80
2022-10-08T20:26:21.016Z,55.60
2022-10-08T20:28:49.533Z,55.80
2022-10-08T20:31:19.445Z,55.80
2022-10-08T20:33:46.689Z,55.80
2022-10-08T20:36:15.072Z,55.80
2022-10-08T20:38:42.175Z,55.90
2022-10-08T20:41:09.856Z,55.90
2022-10-08T20:43:37.590Z,55.90
2022-10-08T20:46:05.921Z,55.90
2022-10-08T20:48:37.675Z,55.90
2022-10-08T20:51:11.546Z,56.00
2022-10-08T20:53:42.341Z,56.00
2022-10-08T20:56:14.593Z,56.10
2022-10-08T20:58:46.017Z,56.10
2022-10-08T21:01:28.170Z,56.20
2022-10-08T21:03:59.432Z,56.30
2022-10-08T21:06:32.238Z,56.40
2022-10-08T21:09:03.775Z,56.40
2022-10-08T21:11:39.232Z,56.40
2022-10-08T21:14:15.239Z,56.50
2022-10-08T21:16:56.531Z,56.50
2022-10-08T21:19:45.852Z,56.60
2022-10-08T21:22:16.275Z,56.60
2022-10-08T21:24:47.115Z,56.60
2022-10-08T21:27:27.887Z,56.70
2022-10-08T21:30:02.861Z,56.70
2022-10-08T21:32:30.682Z,56.80
2022-10-08T21:35:01.979Z,56.60
2022-10-08T21:40:20.191Z,56.60
2022-10-08T21:42:50.911Z,56.70
2022-10-08T21:45:21.118Z,56.70
2022-10-08T21:47:47.905Z,56.80
2022-10-08T21:50:15.454Z,56.80
2022-10-08T21:52:42.399Z,56.80
2022-10-08T21:55:09.207Z,56.80
2022-10-08T21:57:36.026Z,57.00
2022-10-08T22:00:04.176Z,57.10
2022-10-08T22:02:39.832Z,57.10
2022-10-08T22:05:06.753Z,57.10
2022-10-08T22:07:33.630Z,57.20
2022-10-08T22:10:00.464Z,57.30
2022-10-08T22:12:27.446Z,57.40
2022-10-08T22:14:57.060Z,57.50
2022-10-08T22:17:23.951Z,57.50
2022-10-08T22:19:50.785Z,57.60
2022-10-08T22:22:17.690Z,57.70
2022-10-08T22:24:44.538Z,57.70
2022-10-08T22:27:11.364Z,57.70
2022-10-08T22:29:38.737Z,57.70
2022-10-08T22:32:06.512Z,57.80
2022-10-08T22:34:34.362Z,57.70
2022-10-08T22:37:01.204Z,57.70
2022-10-08T22:39:28.092Z,57.70
2022-10-08T22:41:54.993Z,57.80
2022-10-08T22:44:22.099Z,57.70
2022-10-08T22:46:48.911Z,57.80
2022-10-08T22:49:15.789Z,57.80
2022-10-08T22:51:43.900Z,57.80
2022-10-08T22:54:10.732Z,57.90
2022-10-08T22:56:37.847Z,57.90
2022-10-08T22:59:04.707Z,57.90
2022-10-08T23:01:31.612Z,57.90
2022-10-08T23:03:58.783Z,57.80
2022-10-08T23:06:27.450Z,57.80
2022-10-08T23:08:59.013Z,57.70
2022-10-08T23:11:26.136Z,57.60
2022-10-08T23:13:54.013Z,57.60
2022-10-08T23:16:21.398Z,57.70
2022-10-08T23:18:52.706Z,57.70
2022-10-08T23:21:19.682Z,57.80
2022-10-08T23:23:47.178Z,57.80
2022-10-08T23:26:14.576Z,57.80
2022-10-08T23:28:42.123Z,57.90
2022-10-08T23:31:14.122Z,57.90
2022-10-08T23:33:42.622Z,58.00
2022-10-08T23:36:11.012Z,58.00
2022-10-08T23:38:37.887Z,58.10
2022-10-08T23:41:05.807Z,58.10
2022-10-08T23:43:36.854Z,58.10
2022-10-08T23:46:04.110Z,58.00
2022-10-08T23:48:31.232Z,57.90
2022-10-08T23:50:58.334Z,57.90
2022-10-08T23:53:25.244Z,57.90
2022-10-08T23:55:52.068Z,58.00
2022-10-08T23:58:19.104Z,58.10
